Time;durP1;ratioP1;P1;durP2;ratioP2;P2;SDS_P1;SDS_P2;PMS_P1;PMS_P2;Temp;Humidity;BMP_temperature;BMP_pressure;BME280_temperature;BME280_humidity;BME280_pressure;Samples;Min_cycle;Max_cycle;Signal;HPM_P1;HPM_P2
2021/03/31 00:00:21;;;;;;;1999.90;999.90;;;16.10;96.80;;;;;;5054638;28;20219;-52
2021/03/31 00:02:50;;;;;;;1999.90;999.90;;;16.00;97.00;;;;;;5054631;28;20568;-55
2021/03/31 00:05:17;;;;;;;1999.90;999.90;;;16.00;97.10;;;;;;5054509;28;20173;-52
2021/03/31 00:07:44;;;;;;;1999.90;999.90;;;16.00;97.10;;;;;;5054355;28;20207;-55
2021/03/31 00:10:23;;;;;;;1999.90;999.90;;;15.90;97.40;;;;;;5054473;28;20165;-55
2021/03/31 00:12:50;;;;;;;1999.90;999.90;;;15.90;97.60;;;;;;5054553;28;20160;-54
2021/03/31 00:15:17;;;;;;;1999.90;999.90;;;15.90;98.00;;;;;;5054321;28;20278;-51
2021/03/31 00:17:44;;;;;;;1999.90;999.90;;;15.90;98.00;;;;;;5054259;28;20193;-53
2021/03/31 00:20:14;;;;;;;1999.90;999.90;;;15.90;98.30;;;;;;5054175;28;20178;-52
2021/03/31 00:22:41;;;;;;;1999.90;999.90;;;15.90;98.10;;;;;;5054133;28;20172;-51
2021/03/31 00:25:09;;;;;;;1999.90;999.90;;;15.80;98.40;;;;;;5054197;28;20169;-52
2021/03/31 00:27:36;;;;;;;1999.90;999.90;;;15.80;97.80;;;;;;5053997;28;20193;-54
2021/03/31 00:30:06;;;;;;;1999.90;999.90;;;15.60;97.50;;;;;;5053975;28;20176;-53
2021/03/31 00:32:33;;;;;;;1999.90;999.90;;;15.50;98.10;;;;;;5051871;28;20219;-51
2021/03/31 00:35:00;;;;;;;1999.90;999.90;;;15.50;97.70;;;;;;5053878;28;20654;-53
2021/03/31 00:37:26;;;;;;;1999.90;999.90;;;15.50;97.50;;;;;;5053987;28;20177;-53
2021/03/31 00:39:53;;;;;;;1999.90;999.90;;;15.50;97.40;;;;;;5053955;28;20192;-48
2021/03/31 00:42:21;;;;;;;1999.90;999.90;;;15.40;97.50;;;;;;5053795;28;20643;-51
2021/03/31 00:44:47;;;;;;;1999.90;999.90;;;15.30;97.50;;;;;;5053808;28;21158;-53
2021/03/31 00:47:14;;;;;;;1999.90;999.90;;;15.30;97.60;;;;;;5053627;28;20224;-52
2021/03/31 00:49:41;;;;;;;1999.90;999.90;;;15.40;97.50;;;;;;5053690;28;20165;-51
2021/03/31 00:52:08;;;;;;;1999.90;999.90;;;15.40;97.90;;;;;;5053623;28;20549;-55
2021/03/31 00:54:35;;;;;;;1999.90;999.90;;;15.30;97.90;;;;;;5053611;28;20169;-52
2021/03/31 00:57:02;;;;;;;1999.90;999.90;;;15.40;97.90;;;;;;5053338;28;20235;-54
2021/03/31 00:59:29;;;;;;;1999.90;999.90;;;15.40;97.90;;;;;;5052294;28;20204;-34
2021/03/31 01:01:56;;;;;;;1999.90;999.90;;;15.40;97.80;;;;;;5053580;28;20169;-57
2021/03/31 01:04:23;;;;;;;1999.90;999.90;;;15.40;97.70;;;;;;5053436;28;20173;-54
2021/03/31 01:06:50;;;;;;;1999.90;999.90;;;15.50;97.80;;;;;;5053330;28;20703;-55
2021/03/31 01:09:17;;;;;;;1999.90;999.90;;;15.50;97.60;;;;;;5053351;28;20169;-54
2021/03/31 01:11:44;;;;;;;1999.90;999.90;;;15.50;97.40;;;;;;5053285;28;20180;-56
2021/03/31 01:14:19;;;;;;;1999.90;999.90;;;15.60;97.20;;;;;;5053300;28;20165;-55
2021/03/31 01:17:03;;;;;;;1999.90;999.90;;;15.60;96.80;;;;;;5053475;28;20524;-56
2021/03/31 01:20:01;;;;;;;1999.90;999.90;;;15.40;96.90;;;;;;5053386;28;20161;-56
2021/03/31 01:22:46;;;;;;;1999.90;999.90;;;15.30;97.00;;;;;;5053360;28;20168;-54
2021/03/31 01:25:25;;;;;;;1999.90;999.90;;;15.30;96.90;;;;;;5053105;28;20165;-52
2021/03/31 01:28:10;;;;;;;1999.90;999.90;;;15.20;97.40;;;;;;5053208;28;20247;-46
2021/03/31 01:31:21;;;;;;;1999.90;999.90;;;15.10;97.80;;;;;;5053130;28;20608;-54
2021/03/31 01:34:06;;;;;;;1999.90;999.90;;;15.20;98.00;;;;;;5011140;28;20174;-53
2021/03/31 01:36:33;;;;;;;1999.90;999.90;;;15.20;98.00;;;;;;5049575;28;20188;-54
2021/03/31 01:39:05;;;;;;;1999.90;999.90;;;15.20;97.80;;;;;;5052992;28;20172;-53
2021/03/31 01:41:33;;;;;;;1999.90;999.90;;;15.20;97.80;;;;;;5053042;28;20150;-47
2021/03/31 01:44:02;;;;;;;1999.90;999.90;;;15.20;97.60;;;;;;5052713;28;20601;-54
2021/03/31 01:46:31;;;;;;;1999.90;999.90;;;15.20;97.70;;;;;;5052885;28;20173;-55
2021/03/31 01:49:02;;;;;;;1999.90;999.90;;;15.20;97.50;;;;;;5052908;28;20218;-53
2021/03/31 01:51:31;;;;;;;1999.90;999.90;;;15.30;97.60;;;;;;5052945;28;20628;-54
2021/03/31 01:54:00;;;;;;;1999.90;999.90;;;15.30;97.60;;;;;;5052754;28;20598;-54
2021/03/31 01:56:28;;;;;;;1999.90;999.90;;;15.30;97.50;;;;;;5052574;28;20204;-51
2021/03/31 01:58:56;;;;;;;1999.90;999.90;;;15.30;97.30;;;;;;5052692;28;20639;-57
2021/03/31 02:01:24;;;;;;;1999.90;999.90;;;15.20;97.30;;;;;;5052607;28;20231;-55
2021/03/31 02:03:54;;;;;;;1999.90;999.90;;;15.10;97.50;;;;;;5052700;28;20218;-55
2021/03/31 02:06:22;;;;;;;1999.90;999.90;;;15.10;97.60;;;;;;5052648;28;20173;-53
2021/03/31 02:08:50;;;;;;;1999.90;999.90;;;15.00;97.50;;;;;;5052636;28;20194;-53
2021/03/31 02:11:17;;;;;;;1999.90;999.90;;;15.00;97.70;;;;;;5052636;28;20169;-55
2021/03/31 02:13:46;;;;;;;1999.90;999.90;;;15.00;97.80;;;;;;5052545;28;20192;-52
2021/03/31 02:16:14;;;;;;;1999.90;999.90;;;15.00;98.00;;;;;;5052482;28;20172;-55
2021/03/31 02:18:41;;;;;;;1999.90;999.90;;;15.00;98.20;;;;;;5052486;28;20166;-51
2021/03/31 02:21:09;;;;;;;1999.90;999.90;;;14.90;98.40;;;;;;5052513;28;20173;-52
2021/03/31 02:23:37;;;;;;;1999.90;999.90;;;14.90;98.60;;;;;;5052410;28;20175;-48
2021/03/31 02:26:04;;;;;;;1999.90;999.90;;;14.90;98.80;;;;;;5052586;28;20161;-54
2021/03/31 02:28:32;;;;;;;1999.90;999.90;;;14.80;98.90;;;;;;5052464;28;20201;-55
2021/03/31 02:30:59;;;;;;;1999.90;999.90;;;14.90;99.20;;;;;;5052428;28;20169;-52
2021/03/31 02:33:29;;;;;;;1999.90;999.90;;;14.80;99.10;;;;;;5052381;28;20274;-55
2021/03/31 02:35:56;;;;;;;1999.90;999.90;;;14.70;99.70;;;;;;5052320;28;20196;-55
2021/03/31 02:38:24;;;;;;;1999.90;999.90;;;14.70;99.80;;;;;;5052329;28;20560;-54
2021/03/31 02:40:51;;;;;;;1999.90;999.90;;;14.80;99.80;;;;;;5052305;28;20176;-52
2021/03/31 02:43:19;;;;;;;1999.90;999.90;;;14.80;99.90;;;;;;5051042;28;20176;-50
2021/03/31 02:45:52;;;;;;;1999.90;999.90;;;14.80;99.90;;;;;;5052285;28;20639;-53
2021/03/31 02:48:21;;;;;;;1999.90;999.90;;;14.90;99.70;;;;;;5052218;28;20193;-54
2021/03/31 02:50:49;;;;;;;1999.90;999.90;;;15.00;99.50;;;;;;5052299;28;20172;-53
2021/03/31 02:53:17;;;;;;;1999.90;999.90;;;15.00;99.40;;;;;;5052193;28;20161;-53
2021/03/31 02:55:44;;;;;;;1999.90;999.90;;;15.00;99.30;;;;;;5055001;28;20631;-53
2021/03/31 02:58:11;;;;;;;1999.90;999.90;;;14.90;99.30;;;;;;5055616;28;20213;-53
2021/03/31 03:00:38;;;;;;;1999.90;999.90;;;14.90;99.20;;;;;;5055891;28;20166;-53
2021/03/31 03:03:05;;;;;;;1999.90;999.90;;;15.00;99.10;;;;;;5055857;28;20650;-52
2021/03/31 03:05:33;;;;;;;1999.90;999.90;;;15.00;99.00;;;;;;5055581;28;20170;-54
2021/03/31 03:08:00;;;;;;;1999.90;999.90;;;15.00;99.00;;;;;;5055570;28;20270;-52
2021/03/31 03:10:27;;;;;;;1999.90;999.90;;;14.90;98.70;;;;;;5055590;28;20192;-54
2021/03/31 03:12:59;;;;;;;1999.90;999.90;;;14.90;98.20;;;;;;5055604;28;20227;-51
2021/03/31 03:15:28;;;;;;;1999.90;999.90;;;14.90;98.00;;;;;;5055445;28;20639;-57
2021/03/31 03:17:56;;;;;;;1999.90;999.90;;;14.80;98.10;;;;;;5055501;28;20219;-55
2021/03/31 03:20:24;;;;;;;1999.90;999.90;;;14.80;98.30;;;;;;5055433;28;20161;-52
2021/03/31 03:22:53;;;;;;;1999.90;999.90;;;14.70;98.40;;;;;;5055428;28;20650;-55
2021/03/31 03:25:23;;;;;;;1999.90;999.90;;;14.70;98.60;;;;;;5055276;28;20253;-53
2021/03/31 03:27:51;;;;;;;1999.90;999.90;;;14.70;98.60;;;;;;5055445;28;20203;-47
2021/03/31 03:30:20;;;;;;;1999.90;999.90;;;14.80;98.70;;;;;;5055211;28;20222;-54
2021/03/31 03:32:49;;;;;;;1999.90;999.90;;;14.70;98.70;;;;;;5055133;28;20723;-53
2021/03/31 03:35:18;;;;;;;1999.90;999.90;;;14.70;98.80;;;;;;5055098;28;20613;-53
2021/03/31 03:37:47;;;;;;;1999.90;999.90;;;14.80;99.00;;;;;;5055085;28;20165;-53
2021/03/31 03:40:16;;;;;;;1999.90;999.90;;;14.70;99.20;;;;;;5055040;28;20165;-50
2021/03/31 03:42:43;;;;;;;1999.90;999.90;;;14.60;99.40;;;;;;5054972;28;20249;-50
2021/03/31 03:45:11;;;;;;;1999.90;999.90;;;14.60;99.40;;;;;;5054929;28;20185;-53
2021/03/31 03:47:39;;;;;;;1999.90;999.90;;;14.60;99.40;;;;;;5054898;28;20219;-52
2021/03/31 03:50:12;;;;;;;1999.90;999.90;;;14.50;99.60;;;;;;5054831;28;20162;-52
2021/03/31 03:52:39;;;;;;;1999.90;999.90;;;14.50;99.50;;;;;;5055072;28;20623;-52
2021/03/31 03:55:07;;;;;;;1999.90;999.90;;;14.60;99.30;;;;;;5054640;28;20184;-55
2021/03/31 03:57:34;;;;;;;1999.90;999.90;;;14.60;99.10;;;;;;5054379;28;20221;-55
2021/03/31 04:00:01;;;;;;;1999.90;999.90;;;14.60;99.20;;;;;;5054667;28;20169;-55
2021/03/31 04:02:28;;;;;;;1999.90;999.90;;;14.70;99.10;;;;;;5054580;28;20253;-56
2021/03/31 04:04:55;;;;;;;1999.90;999.90;;;14.70;99.20;;;;;;5054457;28;20590;-51
2021/03/31 04:07:22;;;;;;;1999.90;999.90;;;14.70;98.90;;;;;;5054347;28;20271;-44
2021/03/31 04:09:50;;;;;;;1999.90;999.90;;;14.70;98.70;;;;;;5054383;28;20727;-53
2021/03/31 04:12:17;;;;;;;1999.90;999.90;;;14.70;98.80;;;;;;5054307;28;20165;-52
2021/03/31 04:14:45;;;;;;;1999.90;999.90;;;14.80;98.90;;;;;;5054444;28;20207;-52
2021/03/31 04:17:18;;;;;;;1999.90;999.90;;;14.80;98.90;;;;;;5054410;28;20177;-54
2021/03/31 04:19:48;;;;;;;1999.90;999.90;;;14.80;99.20;;;;;;5054313;28;20243;-52
2021/03/31 04:22:15;;;;;;;1999.90;999.90;;;14.80;99.20;;;;;;5054358;28;20287;-52
2021/03/31 04:24:43;;;;;;;1999.90;999.90;;;14.90;99.50;;;;;;5054162;28;20177;-52
2021/03/31 04:27:11;;;;;;;1999.90;999.90;;;14.90;99.60;;;;;;5053940;28;20201;-46
2021/03/31 04:29:44;;;;;;;1999.90;999.90;;;14.90;99.40;;;;;;5054097;28;20169;-51
2021/03/31 04:32:14;;;;;;;1999.90;999.90;;;15.00;99.40;;;;;;5054038;28;20257;-52
2021/03/31 04:34:42;;;;;;;1999.90;999.90;;;15.00;99.40;;;;;;5054134;28;20161;-53
2021/03/31 04:37:09;;;;;;;1999.90;999.90;;;15.20;99.00;;;;;;5053864;28;20173;-54
2021/03/31 04:39:38;;;;;;;1999.90;999.90;;;15.20;98.90;;;;;;5053866;28;20251;-55
2021/03/31 04:42:06;;;;;;;1999.90;999.90;;;15.30;98.70;;;;;;5053753;28;20161;-53
2021/03/31 04:44:33;;;;;;;1999.90;999.90;;;15.30;98.40;;;;;;5053791;28;20161;-51
2021/03/31 04:47:01;;;;;;;1999.90;999.90;;;15.40;98.20;;;;;;5053543;28;20205;-53
2021/03/31 04:49:28;;;;;;;1999.90;999.90;;;15.40;98.10;;;;;;5053979;28;20568;-52
2021/03/31 04:51:55;;;;;;;1999.90;999.90;;;15.50;98.00;;;;;;5053651;28;20643;-52
2021/03/31 04:54:22;;;;;;;1999.90;999.90;;;15.50;97.90;;;;;;5053552;28;20169;-43
2021/03/31 04:56:49;;;;;;;1999.90;999.90;;;15.50;97.90;;;;;;5053350;28;20665;-48
2021/03/31 04:59:15;;;;;;;1999.90;999.90;;;15.50;97.90;;;;;;5053590;28;20154;-53
2021/03/31 05:01:42;;;;;;;1999.90;999.90;;;15.50;97.90;;;;;;5053364;28;20169;-55
2021/03/31 05:04:09;;;;;;;1999.90;999.90;;;15.50;97.90;;;;;;5053287;28;20760;-55
2021/03/31 05:06:36;;;;;;;1999.90;999.90;;;15.50;97.60;;;;;;5053089;28;20173;-49
2021/03/31 05:09:03;;;;;;;1999.90;999.90;;;15.40;97.80;;;;;;5053115;28;20180;-44
2021/03/31 05:11:30;;;;;;;1999.90;999.90;;;15.40;97.90;;;;;;5053175;28;20527;-52
2021/03/31 05:13:57;;;;;;;1999.90;999.90;;;15.40;97.90;;;;;;5053344;28;20177;-51
2021/03/31 05:16:24;;;;;;;1999.90;999.90;;;15.40;98.00;;;;;;5053233;28;20248;-54
2021/03/31 05:18:51;;;;;;;1999.90;999.90;;;15.40;98.00;;;;;;5052544;28;20168;-52
2021/03/31 05:21:18;;;;;;;1999.90;999.90;;;15.40;98.10;;;;;;5053176;28;20636;-51
2021/03/31 05:23:44;;;;;;;1999.90;999.90;;;15.40;98.20;;;;;;5052707;28;20164;-52
2021/03/31 05:26:11;;;;;;;1999.90;999.90;;;15.40;98.30;;;;;;5053007;28;20181;-44
2021/03/31 05:28:38;;;;;;;1999.90;999.90;;;15.30;98.30;;;;;;5052748;28;20192;-41
2021/03/31 05:31:05;;;;;;;1999.90;999.90;;;15.40;98.30;;;;;;5052815;28;20529;-46
2021/03/31 05:33:31;;;;;;;1999.90;999.90;;;15.30;98.40;;;;;;5052651;28;20177;-55
2021/03/31 05:35:58;;;;;;;1999.90;999.90;;;15.30;98.60;;;;;;5052488;28;20165;-54
2021/03/31 05:38:25;;;;;;;1999.90;999.90;;;15.40;98.60;;;;;;5052563;28;20169;-52
2021/03/31 05:40:55;;;;;;;1999.90;999.90;;;15.40;98.60;;;;;;5052257;28;20165;-44
2021/03/31 05:43:22;;;;;;;1999.90;999.90;;;15.50;99.00;;;;;;5052485;28;20165;-49
2021/03/31 05:45:53;;;;;;;1999.90;999.90;;;15.60;98.50;;;;;;5052634;28;20261;-53
2021/03/31 05:48:20;;;;;;;1999.90;999.90;;;15.70;98.40;;;;;;5052417;28;20209;-48
2021/03/31 05:50:47;;;;;;;1999.90;999.90;;;15.70;98.30;;;;;;5052384;28;20210;-41
2021/03/31 05:53:14;;;;;;;1999.90;999.90;;;15.90;98.10;;;;;;5052199;28;20176;-48
2021/03/31 05:55:41;;;;;;;1999.90;999.90;;;15.90;97.90;;;;;;5050161;28;20165;-51
2021/03/31 05:58:08;;;;;;;1999.90;999.90;;;16.00;97.70;;;;;;5052063;28;20222;-38
2021/03/31 06:00:36;;;;;;;1999.90;999.90;;;16.00;97.60;;;;;;5052168;28;20173;-42
2021/03/31 06:03:06;;;;;;;1999.90;999.90;;;16.10;97.60;;;;;;5052097;28;20177;-56
2021/03/31 06:05:34;;;;;;;1999.90;999.90;;;16.20;97.50;;;;;;5051701;28;20188;-56
2021/03/31 06:08:01;;;;;;;1999.90;999.90;;;16.40;95.50;;;;;;5050899;28;20922;-43
2021/03/31 06:10:29;;;;;;;1999.90;999.90;;;16.70;95.10;;;;;;5049592;28;20549;-49
2021/03/31 06:13:03;;;;;;;1999.90;999.90;;;16.80;95.60;;;;;;5048316;28;20574;-52
2021/03/31 06:15:43;;;;;;;1999.90;999.90;;;16.90;95.40;;;;;;5048730;28;20160;-44
2021/03/31 06:18:13;;;;;;;1999.90;999.90;;;17.00;95.50;;;;;;5027764;28;20178;-42
2021/03/31 06:21:01;;;;;;;1999.90;999.90;;;17.00;95.60;;;;;;5043133;28;20235;-41
2021/03/31 06:26:29;;;;;;;1999.90;999.90;;;17.20;95.40;;;;;;5040744;28;20520;-41
2021/03/31 06:29:00;;;;;;;1999.90;999.90;;;17.30;95.50;;;;;;5040342;28;20578;-56
2021/03/31 06:31:28;;;;;;;1999.90;999.90;;;17.40;95.30;;;;;;5054995;28;20242;-38
2021/03/31 06:34:00;;;;;;;1999.90;999.90;;;17.40;95.50;;;;;;5055579;28;20173;-39
2021/03/31 06:36:36;;;;;;;1999.90;999.90;;;17.50;95.50;;;;;;5054346;28;20168;-41
2021/03/31 06:39:17;;;;;;;1999.90;999.90;;;17.50;95.60;;;;;;5054823;28;20184;-39
2021/03/31 06:41:59;;;;;;;1999.90;999.90;;;17.50;96.00;;;;;;5053807;28;20218;-39
2021/03/31 06:44:39;;;;;;;1999.90;999.90;;;17.40;96.20;;;;;;5054525;28;20173;-39
2021/03/31 06:49:33;;;;;;;1999.90;999.90;;;17.40;96.70;;;;;;5042474;28;20256;-54
2021/03/31 06:52:18;;;;;;;1999.90;999.90;;;17.50;97.40;;;;;;5054872;28;20809;-39
2021/03/31 06:54:49;;;;;;;1999.90;999.90;;;17.50;98.50;;;;;;5053815;28;20245;-41
2021/03/31 06:57:24;;;;;;;1999.90;999.90;;;17.40;98.70;;;;;;5053424;28;20212;-42
2021/03/31 07:00:23;;;;;;;1999.90;999.90;;;17.50;99.40;;;;;;5054172;28;20581;-63
2021/03/31 07:02:50;;;;;;;1999.90;999.90;;;17.60;99.20;;;;;;5043086;28;20169;-44
2021/03/31 07:05:17;;;;;;;1999.90;999.90;;;17.60;99.20;;;;;;5053645;28;20530;-41
2021/03/31 07:07:44;;;;;;;1999.90;999.90;;;17.60;99.60;;;;;;5054495;28;20197;-39
2021/03/31 07:10:14;;;;;;;1999.90;999.90;;;17.50;99.80;;;;;;5054560;28;20636;-45
2021/03/31 07:12:51;;;;;;;1999.90;999.90;;;17.40;99.60;;;;;;5054353;28;20174;-52
2021/03/31 07:15:24;;;;;;;1999.90;999.90;;;17.30;99.50;;;;;;5054765;28;20157;-41
2021/03/31 07:17:56;;;;;;;1999.90;999.90;;;17.40;99.80;;;;;;5053741;28;20177;-40
2021/03/31 07:20:28;;;;;;;1999.90;999.90;;;17.40;99.50;;;;;;5054628;28;20173;-50
2021/03/31 07:22:55;;;;;;;1999.90;999.90;;;17.40;99.90;;;;;;5054110;28;20185;-47
2021/03/31 07:25:23;;;;;;;1999.90;999.90;;;17.30;99.70;;;;;;5053291;28;20177;-47
2021/03/31 07:27:51;;;;;;;1999.90;999.90;;;17.10;99.90;;;;;;5053734;28;20709;-49
2021/03/31 07:30:22;;;;;;;1999.90;999.90;;;17.20;99.90;;;;;;5053526;28;20177;-46
2021/03/31 07:33:04;;;;;;;1999.90;999.90;;;17.30;99.90;;;;;;5053334;28;20173;-39
2021/03/31 07:35:35;;;;;;;1999.90;999.90;;;17.30;99.90;;;;;;5054065;28;20678;-46
2021/03/31 07:38:05;;;;;;;1999.90;999.90;;;17.50;99.90;;;;;;5053807;28;20170;-46
2021/03/31 07:40:34;;;;;;;1999.90;999.90;;;17.70;99.50;;;;;;5052739;28;20186;-44
2021/03/31 07:43:05;;;;;;;1999.90;999.90;;;17.70;99.20;;;;;;5054171;28;20176;-44
2021/03/31 07:45:38;;;;;;;1999.90;999.90;;;17.70;99.30;;;;;;5053832;28;20169;-45
2021/03/31 07:48:06;;;;;;;1999.90;999.90;;;17.70;99.40;;;;;;5053421;28;20208;-44
2021/03/31 07:50:33;;;;;;;1999.90;999.90;;;17.70;99.00;;;;;;5053751;28;20177;-46
2021/03/31 07:53:01;;;;;;;1999.90;999.90;;;17.70;99.20;;;;;;5053115;28;20192;-47
2021/03/31 07:55:43;;;;;;;1999.90;999.90;;;17.70;98.80;;;;;;5052770;28;20766;-46
2021/03/31 07:58:28;;;;;;;1999.90;999.90;;;17.80;98.80;;;;;;5033545;28;20240;-61
2021/03/31 08:01:02;;;;;;;1999.90;999.90;;;17.80;98.70;;;;;;5047467;28;20531;-53
2021/03/31 08:03:31;;;;;;;1999.90;999.90;;;17.90;99.00;;;;;;5053466;28;20165;-49
2021/03/31 08:06:29;;;;;;;1999.90;999.90;;;18.10;98.50;;;;;;5053874;28;20165;-42
2021/03/31 08:09:02;;;;;;;1999.90;999.90;;;18.20;98.10;;;;;;5044609;28;20209;-46
2021/03/31 08:11:41;;;;;;;1999.90;999.90;;;18.30;97.80;;;;;;5052909;28;20177;-42
2021/03/31 08:14:13;;;;;;;1999.90;999.90;;;18.40;97.70;;;;;;5052972;28;20165;-45
2021/03/31 08:16:45;;;;;;;1999.90;999.90;;;18.40;97.90;;;;;;5052990;28;20189;-46
2021/03/31 08:19:15;;;;;;;1999.90;999.90;;;18.30;97.90;;;;;;5053045;28;20180;-49
2021/03/31 08:21:47;;;;;;;1999.90;999.90;;;18.40;98.20;;;;;;5052171;28;20214;-57
2021/03/31 08:24:15;;;;;;;1999.90;999.90;;;18.40;98.00;;;;;;5051995;28;20169;-52
2021/03/31 08:26:44;;;;;;;1999.90;999.90;;;18.50;97.90;;;;;;5052874;28;20636;-51
2021/03/31 08:29:20;;;;;;;1999.90;999.90;;;18.50;97.60;;;;;;5052329;28;20260;-43
2021/03/31 08:31:56;;;;;;;1999.90;999.90;;;18.60;97.20;;;;;;5052782;28;20177;-41
2021/03/31 08:34:24;;;;;;;1999.90;999.90;;;18.80;97.30;;;;;;5052682;28;20204;-37
2021/03/31 08:36:51;;;;;;;1999.90;999.90;;;18.80;97.30;;;;;;5052196;28;20169;-54
2021/03/31 08:39:18;;;;;;;1999.90;999.90;;;18.70;97.10;;;;;;5051746;28;20191;-44
2021/03/31 08:41:50;;;;;;;1999.90;999.90;;;18.80;97.80;;;;;;5052016;28;20195;-45
2021/03/31 08:44:21;;;;;;;1999.90;999.90;;;18.80;98.00;;;;;;5052033;28;20184;-47
2021/03/31 08:46:48;;;;;;;1999.90;999.90;;;19.00;97.60;;;;;;5052579;28;20161;-56
2021/03/31 08:49:25;;;;;;;1999.90;999.90;;;19.00;97.90;;;;;;5051657;28;20526;-49
2021/03/31 08:51:55;;;;;;;1999.90;999.90;;;19.10;97.60;;;;;;5051922;28;20187;-45
2021/03/31 08:54:58;;;;;;;1999.90;999.90;;;19.30;97.10;;;;;;5052128;28;20169;-43
2021/03/31 08:57:30;;;;;;;1999.90;999.90;;;19.60;97.00;;;;;;5051025;28;20208;-42
2021/03/31 09:00:00;;;;;;;1999.90;999.90;;;19.50;95.30;;;;;;5052049;28;20161;-43
2021/03/31 09:02:29;;;;;;;1999.90;999.90;;;19.50;96.30;;;;;;5050543;28;20170;-40
2021/03/31 09:04:58;;;;;;;1999.90;999.90;;;19.50;96.00;;;;;;5051859;28;20180;-42
2021/03/31 09:07:26;;;;;;;1999.90;999.90;;;19.50;96.40;;;;;;5051926;28;20230;-41
2021/03/31 09:09:53;;;;;;;1999.90;999.90;;;19.50;95.90;;;;;;5050597;28;20203;-41
2021/03/31 09:12:22;;;;;;;1999.90;999.90;;;19.70;96.40;;;;;;5051784;28;20173;-43
2021/03/31 09:14:56;;;;;;;1999.90;999.90;;;19.70;95.20;;;;;;5051846;28;20216;-41
2021/03/31 09:17:27;;;;;;;1999.90;999.90;;;19.70;95.50;;;;;;5051625;28;20251;-39
2021/03/31 09:19:57;;;;;;;1999.90;999.90;;;19.60;95.50;;;;;;5049792;28;20165;-39
2021/03/31 09:22:26;;;;;;;1999.90;999.90;;;19.50;95.70;;;;;;5052100;28;20208;-39
2021/03/31 09:25:06;;;;;;;1999.90;999.90;;;19.60;95.20;;;;;;5051389;28;20557;-39
2021/03/31 09:27:33;;;;;;;1999.90;999.90;;;19.70;93.80;;;;;;5052112;28;20711;-42
2021/03/31 09:30:05;;;;;;;1999.90;999.90;;;19.90;93.60;;;;;;5051093;28;20570;-39
2021/03/31 09:32:37;;;;;;;1999.90;999.90;;;20.00;92.90;;;;;;5051185;28;20168;-47
2021/03/31 09:35:12;;;;;;;1999.90;999.90;;;20.00;93.00;;;;;;5051419;28;20188;-49
2021/03/31 09:37:56;;;;;;;1999.90;999.90;;;19.90;92.70;;;;;;5045389;28;20173;-49
2021/03/31 09:40:29;;;;;;;1999.90;999.90;;;19.90;93.10;;;;;;5051817;28;20529;-51
2021/03/31 09:42:58;;;;;;;1999.90;999.90;;;20.00;92.70;;;;;;5052009;28;20534;-41
2021/03/31 09:45:27;;;;;;;1999.90;999.90;;;19.90;92.60;;;;;;5050619;28;20181;-47
2021/03/31 09:47:56;;;;;;;1999.90;999.90;;;19.90;92.60;;;;;;5051274;28;20201;-43
2021/03/31 09:50:25;;;;;;;1999.90;999.90;;;19.90;92.40;;;;;;5051759;28;20180;-44
2021/03/31 09:52:56;;;;;;;1999.90;999.90;;;20.00;92.50;;;;;;5050683;28;20250;-39
2021/03/31 09:55:24;;;;;;;1999.90;999.90;;;20.50;92.00;;;;;;5051203;28;20577;-47
2021/03/31 09:57:52;;;;;;;1999.90;999.90;;;20.50;91.10;;;;;;5051120;28;20236;-53
2021/03/31 10:00:23;;;;;;;1999.90;999.90;;;20.80;91.90;;;;;;5050611;28;20176;-51
2021/03/31 10:02:51;;;;;;;1999.90;999.90;;;21.20;90.10;;;;;;5051209;28;20188;-43
2021/03/31 10:05:22;;;;;;;1999.90;999.90;;;21.40;88.80;;;;;;5054138;28;20169;-43
2021/03/31 10:08:06;;;;;;;1999.90;999.90;;;21.80;86.80;;;;;;5054762;28;20204;-47
2021/03/31 10:10:47;;;;;;;1999.90;999.90;;;21.90;85.00;;;;;;5055366;28;20177;-45
2021/03/31 10:13:16;;;;;;;1999.90;999.90;;;21.80;84.80;;;;;;5054631;28;20276;-46
2021/03/31 10:15:56;;;;;;;1999.90;999.90;;;21.90;84.20;;;;;;5054852;28;20244;-40
2021/03/31 10:18:24;;;;;;;1999.90;999.90;;;22.00;84.60;;;;;;5036498;28;20522;-43
2021/03/31 10:20:51;;;;;;;1999.90;999.90;;;22.00;83.90;;;;;;5054787;28;20203;-45
2021/03/31 10:23:35;;;;;;;1999.90;999.90;;;22.00;84.20;;;;;;5055486;28;20252;-52
2021/03/31 10:26:26;;;;;;;1999.90;999.90;;;22.10;83.30;;;;;;5055445;28;20161;-47
2021/03/31 10:28:59;;;;;;;1999.90;999.90;;;22.30;83.00;;;;;;5053349;28;20292;-46
2021/03/31 10:31:29;;;;;;;1999.90;999.90;;;22.40;81.90;;;;;;5053643;28;20575;-46
2021/03/31 10:33:56;;;;;;;1999.90;999.90;;;22.30;81.80;;;;;;5053923;28;20215;-46
2021/03/31 10:36:36;;;;;;;1999.90;999.90;;;22.30;82.10;;;;;;5054507;28;20191;-46
2021/03/31 10:50:13;;;;;;;1999.90;999.90;;;22.20;82.30;;;;;;5053441;28;20168;-51
2021/03/31 10:52:51;;;;;;;1999.90;999.90;;;22.40;82.30;;;;;;5054620;28;20169;-48
2021/03/31 10:55:18;;;;;;;1999.90;999.90;;;22.60;81.90;;;;;;5053800;28;20207;-49
2021/03/31 10:57:44;;;;;;;1999.90;999.90;;;22.90;80.70;;;;;;5053862;28;20683;-51
2021/03/31 11:00:12;;;;;;;1999.90;999.90;;;23.50;79.20;;;;;;5053948;28;20169;-45
2021/03/31 11:02:38;;;;;;;1999.90;999.90;;;24.10;76.70;;;;;;5053517;28;20628;-49
2021/03/31 11:05:06;;;;;;;1999.90;999.90;;;24.40;75.50;;;;;;5054399;28;20626;-45
2021/03/31 11:07:33;;;;;;;1999.90;999.90;;;24.20;74.70;;;;;;5054820;28;20197;-47
2021/03/31 11:09:59;;;;;;;1999.90;999.90;;;24.40;74.80;;;;;;5050214;28;20240;-44
2021/03/31 11:12:26;;;;;;;1999.90;999.90;;;24.40;74.70;;;;;;5054592;28;20165;-45
2021/03/31 11:14:53;;;;;;;1999.90;999.90;;;24.20;75.10;;;;;;5053136;28;20248;-51
2021/03/31 11:17:33;;;;;;;1999.90;999.90;;;24.30;74.90;;;;;;5053169;28;20196;-42
2021/03/31 11:20:18;;;;;;;1999.90;999.90;;;24.60;74.00;;;;;;5054200;28;20184;-41
2021/03/31 11:25:48;;;;;;;1999.90;999.90;;;24.50;73.50;;;;;;5054432;28;20244;-48
2021/03/31 11:28:15;;;;;;;1999.90;999.90;;;24.20;74.00;;;;;;5053755;28;20195;-46
2021/03/31 11:30:41;;;;;;;1999.90;999.90;;;24.10;74.50;;;;;;5052913;28;20541;-43
2021/03/31 11:33:08;;;;;;;1999.90;999.90;;;24.10;75.00;;;;;;5053887;28;20176;-43
2021/03/31 11:35:35;;;;;;;1999.90;999.90;;;24.00;75.40;;;;;;5054086;28;20177;-44
2021/03/31 11:38:02;;;;;;;1999.90;999.90;;;24.00;76.00;;;;;;5052311;28;20516;-42
2021/03/31 11:40:28;;;;;;;1999.90;999.90;;;23.90;76.10;;;;;;5054145;28;20174;-53
2021/03/31 11:42:55;;;;;;;1999.90;999.90;;;23.80;76.40;;;;;;5053174;28;20264;-47
2021/03/31 11:45:22;;;;;;;1999.90;999.90;;;23.60;76.80;;;;;;5053271;28;20176;-42
2021/03/31 11:47:49;;;;;;;1999.90;999.90;;;23.60;77.70;;;;;;5052863;28;20682;-44
2021/03/31 11:50:16;;;;;;;1999.90;999.90;;;23.50;78.20;;;;;;5053483;28;20165;-42
2021/03/31 11:52:43;;;;;;;1999.90;999.90;;;23.40;78.70;;;;;;5052936;28;20176;-42
2021/03/31 11:55:10;;;;;;;1999.90;999.90;;;23.50;78.60;;;;;;5053841;28;20161;-42
2021/03/31 11:57:37;;;;;;;1999.90;999.90;;;23.50;78.40;;;;;;5052447;28;20228;-44
2021/03/31 12:00:06;;;;;;;1999.90;999.90;;;23.50;78.40;;;;;;5052816;28;20197;-44
2021/03/31 12:02:32;;;;;;;1999.90;999.90;;;23.50;78.50;;;;;;5052935;28;20184;-49
2021/03/31 12:04:59;;;;;;;1999.90;999.90;;;23.30;79.30;;;;;;5041598;28;20191;-44
2021/03/31 12:07:27;;;;;;;1999.90;999.90;;;23.20;79.80;;;;;;5052703;28;20205;-41
2021/03/31 12:09:54;;;;;;;1999.90;999.90;;;23.20;80.30;;;;;;5052084;28;20188;-48
2021/03/31 12:12:21;;;;;;;1999.90;999.90;;;23.20;80.20;;;;;;5041161;28;20180;-45
2021/03/31 12:14:48;;;;;;;1999.90;999.90;;;23.20;82.20;;;;;;5053382;28;20169;-41
2021/03/31 12:17:16;;;;;;;1999.90;999.90;;;23.10;82.80;;;;;;5053596;28;20173;-43
2021/03/31 12:19:43;;;;;;;1999.90;999.90;;;22.90;82.60;;;;;;5053440;28;20619;-44
2021/03/31 12:22:10;;;;;;;1999.90;999.90;;;23.00;82.80;;;;;;5053055;28;20180;-46
2021/03/31 12:24:37;;;;;;;1999.90;999.90;;;23.20;82.90;;;;;;5053037;28;20260;-43
2021/03/31 12:27:07;;;;;;;1999.90;999.90;;;23.20;81.30;;;;;;5051486;28;20256;-42
2021/03/31 12:29:35;;;;;;;1999.90;999.90;;;23.20;81.20;;;;;;5052968;28;20185;-47
2021/03/31 12:32:02;;;;;;;1999.90;999.90;;;23.30;81.10;;;;;;5053633;28;20169;-45